Time;durP1;ratioP1;P1;durP2;ratioP2;P2;SDS_P1;SDS_P2;PMS_P1;PMS_P2;Temp;Humidity;BMP_temperature;BMP_pressure;BME280_temperature;BME280_humidity;BME280_pressure;Samples;Min_cycle;Max_cycle;Signal;HPM_P1;HPM_P2
2021/11/23 00:00:28;;;;;;;15.88;7.88;;;4.30;99.90;;;;;;5110536;28;20344;-41
2021/11/23 00:02:54;;;;;;;13.93;7.53;;;4.30;99.90;;;;;;5111164;28;20030;-41
2021/11/23 00:05:20;;;;;;;16.52;9.00;;;4.30;99.90;;;;;;5111703;28;20019;-41
2021/11/23 00:07:46;;;;;;;25.23;9.60;;;4.30;99.90;;;;;;5109544;28;20055;-41
2021/11/23 00:10:12;;;;;;;16.40;9.10;;;4.40;99.90;;;;;;5110528;28;20081;-41
2021/11/23 00:12:38;;;;;;;15.80;8.52;;;4.40;99.90;;;;;;5111285;28;20028;-41
2021/11/23 00:15:04;;;;;;;14.90;8.57;;;4.40;99.90;;;;;;5111386;28;20020;-42
2021/11/23 00:17:30;;;;;;;13.85;7.97;;;4.40;99.90;;;;;;5104272;28;20231;-41
2021/11/23 00:19:56;;;;;;;18.65;8.63;;;4.40;99.90;;;;;;5098358;28;20020;-40
2021/11/23 00:22:22;;;;;;;13.88;8.25;;;4.40;99.90;;;;;;5110554;28;20028;-41
2021/11/23 00:24:48;;;;;;;18.17;8.02;;;4.40;99.90;;;;;;5110604;28;20051;-41
2021/11/23 00:27:14;;;;;;;12.73;7.75;;;4.40;99.90;;;;;;5110976;28;20024;-41
2021/11/23 00:29:39;;;;;;;18.27;8.20;;;4.40;99.90;;;;;;5110961;27;20386;-41
2021/11/23 00:32:05;;;;;;;15.43;8.07;;;4.40;99.90;;;;;;5110492;28;20027;-41
2021/11/23 00:34:32;;;;;;;17.17;8.20;;;4.40;99.90;;;;;;5108881;28;20030;-40
2021/11/23 00:36:59;;;;;;;14.10;7.88;;;4.40;99.90;;;;;;5110434;28;20028;-40
2021/11/23 00:39:25;;;;;;;15.38;7.45;;;4.50;99.90;;;;;;5110867;28;20469;-40
2021/11/23 00:41:51;;;;;;;12.50;6.97;;;4.50;99.90;;;;;;5109756;28;20362;-41
2021/11/23 00:44:19;;;;;;;13.93;7.45;;;4.50;99.90;;;;;;5110593;28;20053;-41
2021/11/23 00:46:45;;;;;;;12.73;6.38;;;4.60;99.90;;;;;;5110843;28;20242;-42
2021/11/23 00:49:13;;;;;;;11.55;6.95;;;4.60;99.90;;;;;;5100149;28;20043;-44
2021/11/23 00:51:39;;;;;;;13.23;6.57;;;4.60;99.90;;;;;;5103206;28;20082;-44
2021/11/23 00:54:05;;;;;;;12.23;6.53;;;4.70;99.90;;;;;;5110030;28;20036;-43
2021/11/23 00:56:30;;;;;;;12.80;6.75;;;4.80;99.90;;;;;;5110649;28;20269;-43
2021/11/23 00:58:56;;;;;;;15.70;6.00;;;4.80;99.90;;;;;;5110549;28;20028;-43
2021/11/23 01:01:22;;;;;;;11.63;6.70;;;4.90;99.90;;;;;;5109857;28;20047;-44
2021/11/23 01:03:48;;;;;;;12.73;7.00;;;4.90;99.90;;;;;;5109841;28;20051;-43
2021/11/23 01:06:13;;;;;;;12.73;6.63;;;4.90;99.90;;;;;;5109352;28;20149;-43
2021/11/23 01:08:39;;;;;;;11.07;6.50;;;4.90;99.90;;;;;;5110113;28;20111;-41
2021/11/23 01:11:11;;;;;;;18.35;7.65;;;4.90;99.90;;;;;;5109877;28;20049;-41
2021/11/23 01:13:38;;;;;;;15.50;6.40;;;4.90;99.90;;;;;;5110016;28;20027;-41
2021/11/23 01:16:05;;;;;;;10.63;5.63;;;4.90;99.90;;;;;;5109092;28;20022;-41
2021/11/23 01:18:34;;;;;;;12.88;7.00;;;4.90;99.90;;;;;;5102678;28;20381;-41
2021/11/23 01:21:00;;;;;;;16.60;6.70;;;4.90;99.90;;;;;;5100900;28;20055;-41
2021/11/23 01:23:26;;;;;;;15.93;6.53;;;4.90;99.90;;;;;;5110032;28;20028;-41
2021/11/23 01:25:53;;;;;;;13.32;6.80;;;4.90;99.90;;;;;;5109481;28;20031;-41
2021/11/23 01:28:20;;;;;;;18.42;7.93;;;4.90;99.90;;;;;;5110229;28;20044;-41
2021/11/23 01:30:45;;;;;;;11.57;6.55;;;4.90;99.90;;;;;;5107740;28;20035;-41
2021/11/23 01:33:11;;;;;;;10.40;6.53;;;4.90;99.90;;;;;;5109128;28;20028;-42
2021/11/23 01:35:37;;;;;;;16.77;6.15;;;4.90;99.90;;;;;;5110022;28;20027;-42
2021/11/23 01:38:03;;;;;;;14.88;6.40;;;5.00;99.90;;;;;;5109228;28;20160;-42
2021/11/23 01:40:29;;;;;;;12.55;5.90;;;5.00;99.90;;;;;;5108866;28;20027;-41
2021/11/23 01:42:55;;;;;;;12.82;6.15;;;4.90;99.90;;;;;;5108951;28;20045;-41
2021/11/23 01:45:21;;;;;;;12.32;6.03;;;5.00;99.90;;;;;;5109603;28;20019;-42
2021/11/23 01:47:47;;;;;;;11.30;6.07;;;5.00;99.90;;;;;;5102075;28;20477;-42
2021/11/23 01:50:13;;;;;;;11.30;5.93;;;5.00;99.90;;;;;;5100134;28;20091;-42
2021/11/23 01:52:40;;;;;;;17.00;7.40;;;5.00;99.90;;;;;;5109398;27;20024;-42
2021/11/23 01:55:08;;;;;;;14.88;6.47;;;5.00;99.90;;;;;;5109309;28;20048;-41
2021/11/23 01:57:35;;;;;;;14.85;6.90;;;5.00;99.90;;;;;;5109366;28;20578;-42
2021/11/23 02:00:06;;;;;;;12.98;7.55;;;5.00;99.90;;;;;;5108865;28;20027;-41
2021/11/23 02:02:32;;;;;;;10.52;5.95;;;5.00;99.90;;;;;;5108817;28;20019;-41
2021/11/23 02:04:58;;;;;;;10.65;5.72;;;5.00;99.90;;;;;;5109069;28;20549;-41
2021/11/23 02:07:23;;;;;;;12.25;6.13;;;5.00;99.90;;;;;;5109236;28;20095;-41
2021/11/23 02:09:49;;;;;;;12.90;6.45;;;5.10;99.90;;;;;;5108926;28;20217;-41
2021/11/23 02:12:15;;;;;;;14.45;6.45;;;5.10;99.90;;;;;;5108108;28;20043;-43
2021/11/23 02:14:41;;;;;;;12.52;6.35;;;5.20;99.90;;;;;;5109158;28;20245;-43
2021/11/23 02:27:13;;;;;;;18.75;6.18;;;5.20;99.90;;;;;;5088297;28;20046;-42
2021/11/23 02:29:39;;;;;;;17.02;6.10;;;5.20;99.90;;;;;;5088334;28;20474;-42
2021/11/23 02:32:05;;;;;;;12.35;6.85;;;5.30;99.90;;;;;;5086385;28;20024;-43
2021/11/23 02:34:31;;;;;;;11.73;5.70;;;5.30;99.90;;;;;;5087509;28;20101;-43
2021/11/23 02:36:57;;;;;;;10.48;5.80;;;5.30;99.90;;;;;;5088092;28;20428;-42
2021/11/23 02:39:23;;;;;;;10.65;5.78;;;5.40;99.90;;;;;;5086934;28;20469;-43
2021/11/23 02:42:20;;;;;;;17.27;5.65;;;5.40;99.90;;;;;;5086958;28;20042;-43
2021/11/23 02:44:45;;;;;;;12.98;5.93;;;5.30;99.90;;;;;;5084806;28;20028;-43
2021/11/23 02:47:11;;;;;;;12.40;5.55;;;5.30;99.90;;;;;;5094623;28;20501;-43
2021/11/23 02:49:37;;;;;;;16.13;6.20;;;5.40;99.90;;;;;;5096847;28;20024;-42
2021/11/23 02:52:07;;;;;;;13.93;5.88;;;5.40;99.90;;;;;;5097947;28;20016;-42
2021/11/23 02:54:34;;;;;;;;;;;5.40;99.90;;;;;;5097668;28;20020;-43
2021/11/23 02:57:00;;;;;;;14.10;6.13;;;5.40;99.90;;;;;;5092562;28;20421;-44
2021/11/23 02:59:26;;;;;;;13.32;5.90;;;5.40;99.90;;;;;;5085648;28;20046;-43
2021/11/23 03:01:51;;;;;;;9.65;5.43;;;5.40;99.90;;;;;;5086415;28;20104;-43
2021/11/23 03:04:17;;;;;;;10.23;6.13;;;5.40;99.90;;;;;;5084768;28;20032;-43
2021/11/23 03:06:43;;;;;;;16.35;6.35;;;5.40;99.90;;;;;;5087229;28;20056;-42
2021/11/23 03:09:09;;;;;;;17.27;6.45;;;5.50;99.90;;;;;;5087376;28;20031;-42
2021/11/23 03:11:36;;;;;;;10.82;6.55;;;5.50;99.90;;;;;;5086577;28;20473;-43
2021/11/23 03:14:01;;;;;;;10.50;6.32;;;5.40;99.90;;;;;;5085375;28;20508;-43
2021/11/23 03:16:27;;;;;;;14.18;6.43;;;5.40;99.90;;;;;;5086575;28;20025;-42
2021/11/23 03:18:52;;;;;;;13.68;6.28;;;5.40;99.90;;;;;;5086763;28;20016;-44
2021/11/23 03:21:18;;;;;;;9.82;6.18;;;5.40;99.90;;;;;;5086747;28;20436;-42
2021/11/23 03:23:44;;;;;;;21.73;7.03;;;5.30;99.90;;;;;;5087135;28;20024;-43
2021/11/23 03:26:10;;;;;;;16.00;8.52;;;5.30;99.90;;;;;;5085743;28;20055;-43
2021/11/23 03:28:36;;;;;;;16.48;7.53;;;5.20;99.90;;;;;;5087088;28;20556;-45
2021/11/23 03:31:02;;;;;;;18.77;7.20;;;5.20;99.90;;;;;;5090640;28;20119;-43
2021/11/23 03:33:28;;;;;;;13.13;6.88;;;5.20;99.90;;;;;;5090019;28;20103;-43
2021/11/23 03:35:54;;;;;;;12.77;7.75;;;5.20;99.90;;;;;;5091665;28;20134;-43
2021/11/23 03:38:19;;;;;;;12.82;7.20;;;5.10;99.90;;;;;;5091791;28;20068;-43
2021/11/23 03:40:45;;;;;;;15.52;7.60;;;5.20;99.90;;;;;;5090816;28;20038;-44
2021/11/23 03:43:12;;;;;;;14.55;7.47;;;5.10;99.90;;;;;;5091231;28;20040;-43
2021/11/23 03:45:38;;;;;;;23.00;9.15;;;5.10;99.90;;;;;;5094391;28;20028;-43
2021/11/23 03:48:04;;;;;;;16.77;8.60;;;5.00;99.90;;;;;;5108909;28;20380;-43
2021/11/23 03:50:31;;;;;;;18.65;8.13;;;5.00;99.90;;;;;;5110994;28;20020;-44
2021/11/23 03:52:58;;;;;;;17.55;8.27;;;4.90;99.90;;;;;;5110584;28;20016;-43
2021/11/23 03:55:25;;;;;;;18.88;10.10;;;4.90;99.90;;;;;;5111893;28;20047;-44
2021/11/23 03:57:52;;;;;;;22.52;9.30;;;4.90;99.90;;;;;;5112021;28;20057;-43
2021/11/23 04:00:20;;;;;;;22.73;9.32;;;4.90;99.90;;;;;;5111526;28;20143;-43
2021/11/23 04:02:47;;;;;;;15.48;9.07;;;4.80;99.90;;;;;;5111107;28;20469;-45
2021/11/23 04:05:13;;;;;;;22.55;10.75;;;4.80;99.90;;;;;;5111321;28;20213;-43
2021/11/23 04:07:40;;;;;;;22.42;11.07;;;4.70;99.90;;;;;;5111382;28;20504;-43
2021/11/23 04:10:12;;;;;;;25.92;11.77;;;4.70;99.90;;;;;;5093191;28;20091;-44
2021/11/23 04:12:38;;;;;;;22.67;11.45;;;4.80;99.90;;;;;;5110937;28;20026;-43
2021/11/23 04:15:05;;;;;;;27.83;14.95;;;4.80;99.90;;;;;;5103355;28;20103;-44
2021/11/23 04:17:31;;;;;;;24.85;12.65;;;4.80;99.90;;;;;;5102548;28;20022;-44
2021/11/23 04:19:57;;;;;;;26.33;12.38;;;4.80;99.90;;;;;;5098637;28;20032;-44
2021/11/23 04:22:23;;;;;;;24.75;13.77;;;4.70;99.90;;;;;;5110962;28;20028;-44
2021/11/23 04:24:48;;;;;;;27.85;14.38;;;4.80;99.90;;;;;;5110961;28;20016;-43
2021/11/23 04:27:14;;;;;;;27.48;15.38;;;4.70;99.90;;;;;;5111238;28;20092;-44
2021/11/23 04:29:39;;;;;;;34.38;16.30;;;4.70;99.90;;;;;;5109767;28;20070;-45
2021/11/23 04:32:05;;;;;;;28.95;15.88;;;4.70;99.90;;;;;;5110611;28;20024;-43
2021/11/23 04:34:31;;;;;;;27.83;15.10;;;4.70;99.90;;;;;;5110689;28;20027;-43
2021/11/23 04:36:57;;;;;;;29.40;15.98;;;4.70;99.90;;;;;;5110793;28;20035;-44
2021/11/23 04:39:22;;;;;;;27.65;15.48;;;4.70;99.90;;;;;;5110517;28;20055;-43
2021/11/23 04:41:48;;;;;;;35.28;16.40;;;4.70;99.90;;;;;;5109626;28;20023;-44
2021/11/23 04:44:14;;;;;;;30.27;15.32;;;4.70;99.90;;;;;;5110405;28;20477;-43
2021/11/23 04:46:39;;;;;;;28.90;15.98;;;4.70;99.90;;;;;;5110597;28;20459;-44
2021/11/23 04:49:05;;;;;;;28.40;15.63;;;4.70;99.90;;;;;;5102040;28;20084;-45
2021/11/23 04:51:32;;;;;;;32.50;17.83;;;4.70;99.90;;;;;;5104014;28;20068;-43
2021/11/23 04:53:57;;;;;;;33.70;17.52;;;4.70;99.90;;;;;;5109014;28;20107;-43
2021/11/23 04:56:23;;;;;;;38.97;19.27;;;4.70;99.90;;;;;;5109254;28;20358;-44
2021/11/23 04:58:49;;;;;;;25.63;16.65;;;4.70;99.90;;;;;;5108921;28;20034;-44
2021/11/23 05:01:15;;;;;;;35.72;17.50;;;4.80;99.90;;;;;;5108379;28;20528;-44
2021/11/23 05:03:40;;;;;;;34.35;18.88;;;4.80;99.90;;;;;;5108621;28;20027;-44
2021/11/23 05:06:06;;;;;;;32.03;18.52;;;4.80;99.90;;;;;;5108912;28;20032;-44
2021/11/23 05:08:32;;;;;;;35.13;19.75;;;4.80;99.90;;;;;;5109589;28;20024;-44
2021/11/23 05:10:57;;;;;;;34.03;19.88;;;4.80;99.90;;;;;;5109542;28;20023;-43
2021/11/23 05:13:23;;;;;;;37.30;19.90;;;4.90;99.90;;;;;;5110089;28;20153;-45
2021/11/23 05:15:48;;;;;;;36.88;19.50;;;4.80;99.90;;;;;;5109993;28;20022;-44
2021/11/23 05:18:14;;;;;;;35.67;20.35;;;4.80;99.90;;;;;;5105405;28;20027;-44
2021/11/23 05:20:40;;;;;;;45.15;21.77;;;4.90;99.90;;;;;;5099075;28;20034;-44
2021/11/23 05:23:05;;;;;;;34.95;20.33;;;4.90;99.90;;;;;;5109807;28;20038;-43
2021/11/23 05:25:31;;;;;;;42.28;20.83;;;4.90;99.90;;;;;;5110119;28;20029;-46
2021/11/23 05:27:57;;;;;;;36.95;21.30;;;4.90;99.90;;;;;;5109864;28;20063;-43
2021/11/23 05:30:22;;;;;;;37.85;21.35;;;4.90;99.90;;;;;;5109067;28;20019;-44
2021/11/23 05:32:48;;;;;;;36.67;20.48;;;4.90;99.90;;;;;;5109660;28;20051;-44
2021/11/23 05:35:14;;;;;;;36.95;21.33;;;4.90;99.90;;;;;;5110299;28;20415;-44
2021/11/23 05:37:41;;;;;;;36.88;20.15;;;5.00;99.90;;;;;;5110179;28;20036;-44
2021/11/23 05:40:07;;;;;;;35.22;20.88;;;5.00;99.90;;;;;;5109673;28;20038;-44
2021/11/23 05:42:34;;;;;;;37.20;21.05;;;5.00;99.90;;;;;;5109112;28;20063;-44
2021/11/23 05:45:00;;;;;;;34.72;20.38;;;5.00;99.90;;;;;;5109588;28;20032;-44
2021/11/23 05:47:26;;;;;;;38.45;20.95;;;5.00;99.90;;;;;;5108030;28;20035;-43
2021/11/23 05:49:52;;;;;;;34.13;20.52;;;5.10;99.90;;;;;;5096637;28;20481;-43
2021/11/23 05:52:18;;;;;;;37.00;20.25;;;5.10;99.90;;;;;;5107560;28;20130;-45
2021/11/23 05:54:45;;;;;;;36.40;20.08;;;5.10;99.90;;;;;;5109453;28;20518;-43
2021/11/23 05:57:12;;;;;;;37.47;20.45;;;5.10;99.90;;;;;;5109058;28;20019;-45
2021/11/23 05:59:38;;;;;;;43.67;23.42;;;5.10;99.90;;;;;;5109050;28;20044;-43
2021/11/23 06:02:04;;;;;;;40.13;23.02;;;5.10;99.90;;;;;;5108442;28;20024;-44
2021/11/23 06:04:30;;;;;;;38.75;21.77;;;5.10;99.90;;;;;;5107544;28;20055;-44
2021/11/23 06:06:55;;;;;;;41.35;23.38;;;5.10;99.90;;;;;;5108689;28;20028;-43
2021/11/23 06:09:21;;;;;;;39.83;22.30;;;5.10;99.90;;;;;;5108808;28;20030;-44
2021/11/23 06:11:47;;;;;;;36.45;22.45;;;5.20;99.90;;;;;;5108266;28;20062;-43
2021/11/23 06:14:12;;;;;;;39.28;23.27;;;5.10;99.90;;;;;;5108958;28;20094;-45
2021/11/23 06:16:43;;;;;;;42.83;23.95;;;5.20;99.90;;;;;;5106716;28;20369;-44
2021/11/23 06:19:09;;;;;;;37.55;23.27;;;5.10;99.90;;;;;;5082810;28;20109;-43
2021/11/23 06:21:34;;;;;;;45.95;23.77;;;5.20;99.90;;;;;;5081335;28;20481;-43
2021/11/23 06:24:01;;;;;;;43.92;23.70;;;5.20;99.90;;;;;;5084661;28;20028;-43
2021/11/23 06:26:27;;;;;;;43.13;23.08;;;5.20;99.90;;;;;;5098141;28;20200;-44
2021/11/23 06:28:52;;;;;;;47.75;24.77;;;5.30;99.90;;;;;;5096600;28;20122;-44
2021/11/23 06:31:18;;;;;;;50.83;25.00;;;5.30;99.90;;;;;;5080272;28;20405;-43
2021/11/23 06:33:44;;;;;;;44.78;24.60;;;5.20;99.90;;;;;;5067552;28;20512;-44
2021/11/23 06:36:10;;;;;;;44.83;25.10;;;5.20;99.90;;;;;;5068728;28;20051;-43
2021/11/23 06:38:35;;;;;;;46.70;24.25;;;5.20;99.90;;;;;;5067363;28;20382;-44
2021/11/23 06:41:01;;;;;;;45.90;25.73;;;5.20;99.90;;;;;;5082096;28;20032;-42
2021/11/23 06:43:27;;;;;;;45.47;23.83;;;5.20;99.90;;;;;;5067420;28;20034;-42
2021/11/23 06:45:52;;;;;;;45.78;24.83;;;5.30;99.90;;;;;;5078421;28;20016;-43
2021/11/23 06:48:18;;;;;;;53.30;25.70;;;5.20;99.90;;;;;;5085643;28;20020;-44
2021/11/23 06:50:44;;;;;;;44.00;23.73;;;5.30;99.90;;;;;;5094606;28;20020;-43
2021/11/23 06:53:10;;;;;;;57.55;26.73;;;5.30;99.90;;;;;;5087909;28;20016;-42
2021/11/23 06:55:37;;;;;;;46.05;25.45;;;5.30;99.90;;;;;;5074968;28;20032;-42
2021/11/23 06:58:03;;;;;;;55.88;27.27;;;5.30;99.90;;;;;;5067518;28;20106;-43
2021/11/23 07:00:29;;;;;;;49.85;26.98;;;5.40;99.90;;;;;;5074661;28;20177;-42
2021/11/23 07:02:56;;;;;;;53.72;27.90;;;5.40;99.90;;;;;;5072574;28;20460;-43
2021/11/23 07:05:22;;;;;;;51.38;25.80;;;5.40;99.90;;;;;;5099027;28;20085;-42
2021/11/23 07:07:48;;;;;;;58.58;29.63;;;5.40;99.90;;;;;;5071475;28;20071;-42
2021/11/23 07:10:14;;;;;;;44.97;26.45;;;5.40;99.90;;;;;;5072553;28;20050;-43
2021/11/23 07:12:41;;;;;;;56.80;27.90;;;5.50;99.90;;;;;;5085611;28;20022;-43
2021/11/23 07:15:08;;;;;;;57.47;27.63;;;5.50;99.90;;;;;;5091995;28;20023;-42
2021/11/23 07:17:34;;;;;;;52.92;27.45;;;5.50;99.90;;;;;;5091622;28;20028;-43
2021/11/23 07:19:59;;;;;;;57.78;26.10;;;5.50;99.90;;;;;;5094612;28;20039;-43
2021/11/23 07:22:25;;;;;;;59.85;28.27;;;5.50;99.90;;;;;;5093924;28;20024;-44
2021/11/23 07:24:51;;;;;;;59.17;27.55;;;5.50;99.90;;;;;;5085871;28;20418;-43
2021/11/23 07:27:17;;;;;;;56.72;28.13;;;5.50;99.90;;;;;;5086809;28;20027;-43
2021/11/23 07:29:43;;;;;;;50.10;25.92;;;5.50;99.90;;;;;;5086199;28;20477;-43
2021/11/23 07:32:11;;;;;;;51.83;26.50;;;5.50;99.90;;;;;;5086841;28;20103;-44
2021/11/23 07:34:37;;;;;;;55.15;27.23;;;5.50;99.90;;;;;;5085416;28;20012;-45
2021/11/23 07:37:02;;;;;;;59.22;28.20;;;5.60;99.90;;;;;;5083510;28;20138;-44
2021/11/23 07:39:28;;;;;;;50.75;25.70;;;5.60;99.90;;;;;;5085879;28;20103;-43
2021/11/23 07:41:55;;;;;;;52.78;25.98;;;5.60;99.90;;;;;;5084916;28;20481;-45
2021/11/23 07:44:20;;;;;;;64.97;28.38;;;5.60;99.90;;;;;;5083591;28;20089;-42
2021/11/23 07:46:46;;;;;;;54.53;27.80;;;5.60;99.90;;;;;;5084583;28;20549;-44
2021/11/23 07:49:12;;;;;;;68.93;27.85;;;5.70;99.90;;;;;;5084217;28;20074;-43
2021/11/23 07:51:38;;;;;;;52.78;26.45;;;5.70;99.90;;;;;;5084764;28;20024;-43
2021/11/23 07:54:04;;;;;;;64.80;27.08;;;5.70;99.90;;;;;;5066396;28;20020;-43
2021/11/23 07:56:30;;;;;;;65.70;29.90;;;5.70;99.90;;;;;;5085646;28;20096;-43
2021/11/23 07:58:56;;;;;;;58.03;28.35;;;5.60;99.90;;;;;;5085750;28;20447;-43
2021/11/23 08:01:21;;;;;;;67.97;30.52;;;5.70;99.90;;;;;;5081921;28;20028;-44
2021/11/23 08:03:47;;;;;;;61.03;28.15;;;5.70;99.90;;;;;;5086774;28;20035;-43
2021/11/23 08:06:12;;;;;;;57.17;26.33;;;5.70;99.90;;;;;;5077218;28;20024;-43
2021/11/23 08:08:39;;;;;;;55.17;27.75;;;5.70;99.90;;;;;;5078993;28;20020;-42
2021/11/23 08:11:05;;;;;;;59.38;28.75;;;5.70;99.90;;;;;;5092244;28;20054;-43
2021/11/23 08:13:31;;;;;;;62.20;29.10;;;5.70;99.90;;;;;;5068760;28;20024;-44
2021/11/23 08:16:02;;;;;;;50.75;27.13;;;5.70;99.90;;;;;;5069272;28;20021;-44
2021/11/23 08:18:28;;;;;;;55.13;26.90;;;5.70;99.90;;;;;;5085819;28;20394;-43
2021/11/23 08:20:53;;;;;;;53.75;26.88;;;5.70;99.90;;;;;;5101279;28;20088;-44
2021/11/23 08:23:19;;;;;;;58.33;28.77;;;5.70;99.90;;;;;;5098876;28;20024;-44
2021/11/23 08:25:46;;;;;;;57.33;28.33;;;5.70;99.90;;;;;;5096025;28;20028;-42
2021/11/23 08:28:12;;;;;;;62.10;28.20;;;5.80;99.90;;;;;;5086004;28;20036;-43
2021/11/23 08:30:38;;;;;;;54.75;27.30;;;5.80;99.90;;;;;;5069647;28;20067;-43
2021/11/23 08:33:03;;;;;;;62.15;29.38;;;5.80;99.90;;;;;;5089097;28;20073;-43
2021/11/23 08:35:29;;;;;;;61.03;28.42;;;5.80;99.90;;;;;;5088650;28;20107;-42
2021/11/23 08:37:55;;;;;;;97.65;47.50;;;5.90;99.90;;;;;;5090362;28;20016;-42
2021/11/23 08:40:20;;;;;;;58.47;28.23;;;5.90;99.90;;;;;;5073375;28;20471;-43
2021/11/23 08:42:46;;;;;;;57.88;28.02;;;6.00;99.90;;;;;;5069591;28;20510;-43
2021/11/23 08:45:12;;;;;;;56.00;28.02;;;6.00;99.90;;;;;;5070745;28;20481;-43
2021/11/23 08:47:39;;;;;;;49.63;26.73;;;6.00;99.90;;;;;;5089714;28;20028;-42
2021/11/23 08:50:07;;;;;;;53.70;26.60;;;6.00;99.90;;;;;;5099755;28;20020;-42
2021/11/23 08:52:34;;;;;;;51.88;26.60;;;6.00;99.90;;;;;;5094191;28;20603;-43
2021/11/23 08:55:00;;;;;;;53.13;25.98;;;6.10;99.90;;;;;;5083789;28;20031;-48
2021/11/23 08:57:26;;;;;;;51.35;25.92;;;6.10;99.90;;;;;;5069796;28;20020;-48
2021/11/23 08:59:54;;;;;;;54.17;27.27;;;6.10;99.90;;;;;;5083320;28;20098;-47
2021/11/23 09:02:20;;;;;;;57.35;27.50;;;6.10;99.90;;;;;;5080082;28;20020;-50
2021/11/23 09:04:46;;;;;;;63.15;30.73;;;6.10;99.90;;;;;;5070192;28;20059;-48
2021/11/23 09:07:15;;;;;;;61.10;31.15;;;6.10;99.90;;;;;;5096216;28;20032;-49
2021/11/23 09:09:43;;;;;;;58.43;28.83;;;6.10;99.90;;;;;;5101547;28;20028;-50
2021/11/23 09:12:09;;;;;;;50.95;26.88;;;6.20;99.90;;;;;;5096295;28;20511;-49
2021/11/23 09:14:36;;;;;;;57.25;29.35;;;6.20;99.90;;;;;;5089440;28;20130;-47
2021/11/23 09:17:07;;;;;;;58.67;29.58;;;6.20;99.90;;;;;;5089492;28;20028;-50
2021/11/23 09:19:34;;;;;;;59.38;29.67;;;6.30;99.90;;;;;;5095856;28;20026;-47
2021/11/23 09:22:00;;;;;;;55.67;28.67;;;6.30;99.90;;;;;;5094244;28;20500;-47
2021/11/23 09:24:26;;;;;;;55.08;28.23;;;6.30;99.90;;;;;;5089194;28;20627;-48
2021/11/23 09:26:52;;;;;;;47.35;27.60;;;6.40;99.90;;;;;;5070920;28;20051;-50
2021/11/23 09:29:19;;;;;;;55.50;29.20;;;6.30;99.90;;;;;;5082917;28;20024;-50
2021/11/23 09:31:45;;;;;;;57.13;29.33;;;6.30;99.90;;;;;;5088249;28;20024;-47
2021/11/23 09:34:12;;;;;;;55.65;27.70;;;6.40;99.90;;;;;;5090059;28;20024;-50
2021/11/23 09:36:39;;;;;;;52.03;27.08;;;6.40;99.90;;;;;;5089048;28;20024;-49
2021/11/23 09:39:06;;;;;;;53.03;28.27;;;6.50;99.90;;;;;;5089787;28;20028;-48
2021/11/23 09:41:34;;;;;;;53.75;27.58;;;6.50;99.90;;;;;;5086851;28;20089;-50
2021/11/23 09:44:04;;;;;;;47.80;26.45;;;6.50;99.90;;;;;;5087748;28;20028;-48
2021/11/23 09:46:34;;;;;;;;;;;6.50;99.90;;;;;;5089625;28;20052;-51
2021/11/23 09:49:01;;;;;;;55.92;26.85;;;6.50;99.90;;;;;;5091363;28;20326;-51
2021/11/23 09:51:28;;;;;;;56.95;27.85;;;6.60;99.90;;;;;;5090541;28;20069;-48
2021/11/23 09:53:57;;;;;;;71.78;37.08;;;6.60;99.90;;;;;;5090557;28;20101;-50
2021/11/23 09:56:23;;;;;;;57.70;28.95;;;6.60;99.90;;;;;;5093586;28;20024;-49
2021/11/23 09:58:54;;;;;;;56.33;29.20;;;6.50;99.90;;;;;;5090124;28;20462;-48
2021/11/23 10:01:26;;;;;;;56.42;26.88;;;6.50;99.90;;;;;;5082630;28;20025;-48
2021/11/23 10:03:53;;;;;;;60.15;29.00;;;6.60;99.90;;;;;;5081371;28;20052;-50
2021/11/23 10:06:23;;;;;;;62.28;29.33;;;6.60;99.90;;;;;;5080279;28;20036;-47
2021/11/23 10:08:51;;;;;;;52.13;28.13;;;6.70;99.90;;;;;;5069508;28;20478;-50
2021/11/23 10:11:33;;;;;;;50.22;26.95;;;6.70;99.90;;;;;;5074806;28;20024;-49
2021/11/23 10:14:01;;;;;;;47.78;25.70;;;6.80;99.90;;;;;;5088680;28;20031;-49
2021/11/23 10:16:44;;;;;;;44.10;25.75;;;6.80;99.90;;;;;;5088678;28;20026;-48
2021/11/23 10:19:12;;;;;;;53.47;27.42;;;6.80;99.90;;;;;;5088060;28;20610;-50
2021/11/23 10:21:56;;;;;;;54.22;26.27;;;6.80;99.90;;;;;;5093404;28;20464;-48
2021/11/23 10:24:22;;;;;;;58.88;29.52;;;6.80;99.90;;;;;;5088313;28;20113;-48
2021/11/23 10:26:49;;;;;;;72.82;29.10;;;6.80;99.90;;;;;;5069254;28;20035;-49
2021/11/23 10:29:16;;;;;;;70.45;29.42;;;6.80;99.90;;;;;;5074995;28;20024;-48
2021/11/23 10:31:45;;;;;;;66.85;29.85;;;6.90;99.90;;;;;;5085713;28;20024;-48
2021/11/23 10:34:14;;;;;;;45.58;25.35;;;7.00;99.90;;;;;;5099152;28;20487;-46
2021/11/23 10:36:44;;;;;;;47.30;25.77;;;7.00;99.90;;;;;;5082968;28;20029;-49
2021/11/23 10:39:09;;;;;;;41.67;23.52;;;7.00;99.90;;;;;;5077887;28;20110;-49
2021/11/23 10:41:36;;;;;;;45.15;23.52;;;7.10;99.90;;;;;;5086378;28;20119;-48
2021/11/23 10:44:03;;;;;;;44.70;23.30;;;7.10;99.90;;;;;;5088569;28;20024;-48
2021/11/23 10:46:31;;;;;;;36.45;21.67;;;7.20;99.90;;;;;;5085986;28;20028;-50
2021/11/23 10:49:00;;;;;;;33.63;20.63;;;7.10;99.90;;;;;;5078174;28;20036;-49
2021/11/23 10:51:35;;;;;;;35.85;21.05;;;7.20;99.90;;;;;;5090452;28;20032;-49
2021/11/23 10:54:18;;;;;;;35.25;21.48;;;7.10;99.90;;;;;;5067622;28;20034;-50
2021/11/23 10:57:09;;;;;;;35.90;20.42;;;7.20;99.90;;;;;;5083556;28;20120;-52
2021/11/23 10:59:38;;;;;;;35.83;20.13;;;7.20;99.90;;;;;;5086787;28;20507;-49
2021/11/23 11:02:04;;;;;;;36.58;21.63;;;7.20;99.90;;;;;;5098156;28;20031;-50
2021/11/23 11:04:33;;;;;;;39.35;21.40;;;7.20;99.90;;;;;;5106926;28;20527;-48
2021/11/23 11:07:01;;;;;;;32.75;20.23;;;7.20;99.90;;;;;;5072526;28;20082;-51
2021/11/23 11:09:28;;;;;;;37.58;21.17;;;7.20;99.90;;;;;;5080632;28;20202;-49
2021/11/23 11:11:54;;;;;;;38.42;22.10;;;7.20;99.90;;;;;;5083459;28;20054;-49
2021/11/23 11:14:21;;;;;;;42.28;22.65;;;7.20;99.90;;;;;;5075216;28;20021;-49
2021/11/23 11:16:47;;;;;;;35.15;21.35;;;7.20;99.90;;;;;;5068313;28;20024;-51
2021/11/23 11:19:15;;;;;;;38.00;20.13;;;7.20;99.90;;;;;;5077812;28;20795;-49
2021/11/23 11:21:49;;;;;;;34.13;21.00;;;7.20;99.90;;;;;;5099997;28;20054;-49
2021/11/23 11:24:51;;;;;;;37.63;20.98;;;7.30;99.90;;;;;;5099740;28;20016;-49
2021/11/23 11:27:32;;;;;;;35.28;20.77;;;7.30;99.90;;;;;;5067107;28;20496;-47
2021/11/23 11:30:20;;;;;;;40.50;21.38;;;7.30;99.90;;;;;;5069472;28;20036;-46
2021/11/23 11:32:47;;;;;;;35.58;21.50;;;7.30;99.90;;;;;;5068196;28;20024;-48
2021/11/23 11:35:30;;;;;;;35.65;20.83;;;7.30;99.90;;;;;;5086265;28;20066;-48
2021/11/23 11:37:58;;;;;;;37.22;20.27;;;7.30;99.90;;;;;;5069300;28;20063;-50
2021/11/23 11:40:26;;;;;;;38.60;21.13;;;7.30;99.90;;;;;;5089675;28;20957;-49
2021/11/23 11:43:00;;;;;;;40.65;21.65;;;7.30;99.90;;;;;;5099064;28;20042;-47
2021/11/23 11:45:38;;;;;;;40.55;23.15;;;7.30;99.90;;;;;;5101598;28;20587;-50
2021/11/23 11:48:26;;;;;;;38.65;20.92;;;7.20;99.90;;;;;;5085576;28;20078;-48
2021/11/23 11:51:00;;;;;;;37.10;20.35;;;7.30;99.90;;;;;;5093741;28;20035;-47
2021/11/23 11:53:30;;;;;;;35.40;20.33;;;7.40;99.90;;;;;;5090319;28;20199;-49
2021/11/23 11:55:56;;;;;;;37.58;23.00;;;7.40;99.90;;;;;;5081885;28;20048;-47
2021/11/23 11:58:57;;;;;;;29.40;19.30;;;7.40;99.90;;;;;;5075031;28;20493;-47
2021/11/23 12:01:28;;;;;;;;;;;7.50;99.90;;;;;;5081513;28;20566;-47
2021/11/23 12:04:03;;;;;;;28.40;17.75;;;7.50;99.90;;;;;;5070112;28;19931;-47
2021/11/23 12:06:54;;;;;;;28.42;17.58;;;7.50;99.90;;;;;;5071421;28;20109;-47
2021/11/23 12:09:42;;;;;;;28.88;15.93;;;7.60;99.90;;;;;;5074330;28;20021;-47
2021/11/23 12:12:11;;;;;;;26.70;15.77;;;7.70;99.90;;;;;;5080040;28;20028;-50
2021/11/23 12:15:18;;;;;;;27.40;16.15;;;7.80;99.90;;;;;;5069903;28;20044;-46
2021/11/23 12:18:07;;;;;;;27.23;15.95;;;7.80;99.90;;;;;;5051899;28;20051;-47
2021/11/23 12:20:54;;;;;;;25.95;15.52;;;7.80;99.90;;;;;;5089140;28;20066;-48
2021/11/23 12:23:39;;;;;;;28.77;16.27;;;7.90;99.90;;;;;;5073506;28;20028;-48
2021/11/23 12:26:20;;;;;;;30.05;16.80;;;7.90;99.90;;;;;;5088137;28;20500;-47
2021/11/23 12:29:01;;;;;;;27.60;15.18;;;7.90;99.90;;;;;;5093697;28;20035;-48
2021/11/23 12:31:31;;;;;;;33.28;18.63;;;7.80;99.90;;;;;;5091702;28;20386;-49
2021/11/23 12:34:02;;;;;;;32.30;18.42;;;7.90;99.90;;;;;;5096166;28;20074;-48
2021/11/23 12:36:30;;;;;;;36.35;20.35;;;7.90;99.90;;;;;;5097571;28;20027;-49
2021/11/23 12:39:11;;;;;;;30.58;17.35;;;7.80;99.90;;;;;;5091074;28;20434;-48
2021/11/23 12:41:37;;;;;;;27.88;17.55;;;7.80;99.90;;;;;;5094462;28;20118;-48
2021/11/23 12:44:14;;;;;;;34.53;20.05;;;7.70;99.90;;;;;;5098404;28;20517;-47
2021/11/23 12:46:39;;;;;;;33.15;19.63;;;7.70;99.90;;;;;;5090334;28;20024;-47
2021/11/23 12:49:11;;;;;;;32.45;20.05;;;7.60;99.90;;;;;;5079599;28;20035;-48
2021/11/23 12:51:41;;;;;;;38.47;21.25;;;7.60;99.90;;;;;;5092128;28;20021;-48
2021/11/23 12:54:07;;;;;;;41.00;20.85;;;7.70;99.90;;;;;;5088967;28;20016;-49